createdAt,value
2023-05-24T00:00:54.564Z,99063.90
2023-05-24T00:03:55.719Z,99063.36
2023-05-24T00:06:56.580Z,99062.61
2023-05-24T00:09:57.603Z,99061.69
2023-05-24T00:12:58.606Z,99069.36
2023-05-24T00:15:59.601Z,99063.44
2023-05-24T00:19:01.624Z,99056.73
2023-05-24T00:22:02.612Z,99052.56
2023-05-24T00:25:03.623Z,99058.13
2023-05-24T00:28:04.616Z,99061.44
2023-05-24T00:31:05.633Z,99060.83
2023-05-24T00:34:06.638Z,99064.41
2023-05-24T00:37:07.674Z,99069.23
2023-05-24T00:40:09.664Z,99071.58
2023-05-24T00:43:10.677Z,99073.88
2023-05-24T00:46:26.766Z,99067.52
2023-05-24T00:49:27.679Z,99074.86
2023-05-24T00:52:28.684Z,99076.01
2023-05-24T00:55:29.682Z,99074.99
2023-05-24T00:58:33.684Z,99075.94
2023-05-24T01:01:37.742Z,99073.61
2023-05-24T01:04:39.702Z,99074.63
2023-05-24T01:07:50.715Z,99076.56
2023-05-24T01:11:17.711Z,99073.84
2023-05-24T01:14:52.848Z,99071.43
2023-05-24T01:18:09.893Z,99069.36
2023-05-24T01:21:36.815Z,99075.70
2023-05-24T01:24:43.901Z,99081.26
2023-05-24T01:27:49.743Z,99090.03
2023-05-24T01:30:50.754Z,99090.08
2023-05-24T01:33:55.770Z,99091.65
2023-05-24T01:36:56.758Z,99089.63
2023-05-24T01:39:57.771Z,99092.68
2023-05-24T01:43:09.767Z,99094.70
2023-05-24T01:46:35.831Z,99094.36
2023-05-24T01:49:44.788Z,99093.04
2023-05-24T01:52:48.770Z,99088.61
2023-05-24T01:55:51.809Z,99090.60
2023-05-24T01:58:54.801Z,99091.55
2023-05-24T02:01:56.959Z,99089.59
2023-05-24T02:04:57.809Z,99094.08
2023-05-24T02:08:01.956Z,99091.98
2023-05-24T02:11:02.919Z,99088.16
2023-05-24T02:14:03.847Z,99089.80
2023-05-24T02:17:05.966Z,99083.35
2023-05-24T02:20:06.832Z,99082.30
2023-05-24T02:23:00.941Z,99085.08
2023-05-24T02:26:01.855Z,99087.65
2023-05-24T02:29:02.871Z,99085.52
2023-05-24T02:32:03.857Z,99087.02
2023-05-24T02:35:05.886Z,99084.91
2023-05-24T02:38:06.890Z,99088.27
2023-05-24T02:41:07.899Z,99094.77
2023-05-24T02:44:08.893Z,99093.82
2023-05-24T02:47:09.904Z,99092.25
2023-05-24T02:50:10.900Z,99097.32
2023-05-24T02:53:12.045Z,99098.63
2023-05-24T02:56:14.914Z,99089.95
2023-05-24T02:59:15.929Z,99093.81
2023-05-24T03:02:16.947Z,99100.21
2023-05-24T03:05:17.932Z,99102.61
2023-05-24T03:08:19.004Z,99102.94
2023-05-24T03:11:20.931Z,99101.83
2023-05-24T03:14:23.944Z,99101.27
2023-05-24T03:17:24.968Z,99109.15
2023-05-24T03:20:28.107Z,99109.39
2023-05-24T03:23:28.958Z,99116.96
2023-05-24T03:26:29.972Z,99112.04
2023-05-24T03:29:30.990Z,99116.09
2023-05-24T03:32:32.006Z,99112.18
2023-05-24T03:35:32.979Z,99116.10
2023-05-24T03:38:34.007Z,99119.59
2023-05-24T03:41:35.019Z,99120.38
2023-05-24T03:44:37.999Z,99117.86
2023-05-24T03:47:39.056Z,99114.84
2023-05-24T03:50:40.228Z,99122.92
2023-05-24T03:53:41.022Z,99123.38
2023-05-24T03:56:42.048Z,99127.36
2023-05-24T03:59:43.033Z,99122.40
2023-05-24T04:02:47.093Z,99123.48
2023-05-24T04:05:49.107Z,99130.45
2023-05-24T04:08:50.055Z,99127.17
2023-05-24T04:11:51.083Z,99127.73
2023-05-24T04:14:52.101Z,99128.09
2023-05-24T04:17:53.122Z,99127.31
2023-05-24T04:20:54.084Z,99126.04
2023-05-24T04:23:48.171Z,99131.24
2023-05-24T04:26:49.139Z,99135.23
2023-05-24T04:29:56.057Z,99135.52
2023-05-24T04:32:57.138Z,99135.42
2023-05-24T04:35:59.178Z,99129.23
2023-05-24T04:39:04.139Z,99133.39
2023-05-24T04:42:05.208Z,99131.39
2023-05-24T04:45:06.143Z,99129.85
2023-05-24T04:48:07.234Z,99129.59
2023-05-24T04:51:08.178Z,99136.42
2023-05-24T05:12:01.264Z,99141.58
2023-05-24T05:15:02.305Z,99149.89
2023-05-24T05:18:04.293Z,99152.45
2023-05-24T05:21:05.268Z,99154.33
2023-05-24T05:24:06.274Z,99155.63
2023-05-24T05:27:07.291Z,99151.27
2023-05-24T05:30:08.276Z,99159.33
2023-05-24T05:33:09.553Z,99162.55
2023-05-24T05:36:10.324Z,99164.30
2023-05-24T05:39:11.314Z,99162.09
2023-05-24T05:42:12.309Z,99161.59
2023-05-24T05:45:13.339Z,99168.64
2023-05-24T05:48:14.322Z,99173.88
2023-05-24T05:51:15.329Z,99176.20
2023-05-24T05:54:21.352Z,99176.75
2023-05-24T05:57:23.330Z,99181.99
2023-05-24T06:00:24.363Z,99182.92
2023-05-24T06:03:25.550Z,99181.94
2023-05-24T06:06:26.327Z,99182.05
2023-05-24T06:09:27.359Z,99183.48
2023-05-24T06:12:28.376Z,99187.83
2023-05-24T06:15:29.413Z,99191.52
2023-05-24T06:18:30.480Z,99195.48
2023-05-24T06:21:31.391Z,99195.55
2023-05-24T06:24:35.406Z,99189.16
2023-05-24T06:27:36.409Z,99187.46
2023-05-24T06:30:37.475Z,99190.03
2023-05-24T06:33:42.592Z,99191.90
2023-05-24T06:36:49.493Z,99190.67
2023-05-24T06:39:50.510Z,99190.86
2023-05-24T06:42:51.439Z,99187.77
2023-05-24T06:45:52.452Z,99185.52
2023-05-24T06:48:53.610Z,99185.28
2023-05-24T06:51:54.429Z,99184.33
2023-05-24T06:54:55.458Z,99181.77
2023-05-24T06:57:56.479Z,99180.60
2023-05-24T07:00:57.539Z,99178.64
2023-05-24T07:03:58.491Z,99184.73
2023-05-24T07:06:59.509Z,99182.17
2023-05-24T07:10:01.888Z,99180.20
2023-05-24T07:13:02.511Z,99175.52
2023-05-24T07:16:03.523Z,99175.01
2023-05-24T07:19:05.527Z,99174.95
2023-05-24T07:22:06.519Z,99180.32
2023-05-24T07:25:07.534Z,99188.12
2023-05-24T07:28:08.520Z,99184.36
2023-05-24T07:31:09.521Z,99183.70
2023-05-24T07:34:10.563Z,99186.05
2023-05-24T07:37:11.590Z,99185.88
2023-05-24T07:40:12.589Z,99186.73
2023-05-24T07:43:13.578Z,99188.16
2023-05-24T07:46:07.573Z,99188.98
2023-05-24T07:48:55.630Z,99192.82
2023-05-24T07:51:56.589Z,99190.61
2023-05-24T07:54:57.610Z,99190.52
2023-05-24T07:57:51.762Z,99196.36
2023-05-24T08:00:52.634Z,99200.48
2023-05-24T08:03:53.778Z,99200.23
2023-05-24T08:06:54.644Z,99204.06
2023-05-24T08:09:55.681Z,99202.94
2023-05-24T08:12:58.627Z,99201.96
2023-05-24T08:15:59.652Z,99198.55
2023-05-24T08:19:00.678Z,99196.77
2023-05-24T08:22:02.663Z,99197.10
2023-05-24T08:25:03.637Z,99198.05
2023-05-24T08:28:04.724Z,99199.59
2023-05-24T08:31:05.665Z,99200.02
2023-05-24T08:34:06.664Z,99199.63
2023-05-24T08:37:07.675Z,99206.54
2023-05-24T08:40:08.704Z,99205.02
2023-05-24T08:43:18.692Z,99194.69
2023-05-24T08:46:20.741Z,99191.70
2023-05-24T08:49:22.681Z,99193.41
2023-05-24T08:52:24.711Z,99190.03
2023-05-24T08:55:25.694Z,99189.13
2023-05-24T08:58:26.757Z,99184.48
2023-05-24T09:01:31.064Z,99187.92
2023-05-24T09:04:33.725Z,99185.48
2023-05-24T09:07:36.744Z,99187.14
2023-05-24T09:10:52.780Z,99191.72
2023-05-24T09:13:57.772Z,99193.84
2023-05-24T09:16:58.765Z,99194.81
2023-05-24T09:19:59.785Z,99194.34
2023-05-24T09:23:05.768Z,99192.52
2023-05-24T09:26:06.814Z,99192.55
2023-05-24T09:29:08.784Z,99192.96
2023-05-24T09:32:10.784Z,99190.58
2023-05-24T09:35:13.810Z,99192.83
2023-05-24T09:38:14.805Z,99196.85
2023-05-24T09:41:17.769Z,99199.33
2023-05-24T09:44:19.805Z,99199.14
2023-05-24T09:47:20.877Z,99200.14
2023-05-24T09:50:29.821Z,99205.33
2023-05-24T09:53:31.814Z,99205.35
2023-05-24T09:56:32.852Z,99206.48
2023-05-24T09:59:33.826Z,99206.71
2023-05-24T10:02:45.248Z,99201.03
2023-05-24T10:05:56.836Z,99204.94
2023-05-24T10:08:57.874Z,99199.17
2023-05-24T10:11:58.856Z,99201.80
2023-05-24T10:14:59.865Z,99202.27
2023-05-24T10:18:00.893Z,99201.70
2023-05-24T10:21:03.973Z,99203.89
2023-05-24T10:24:10.881Z,99205.90
2023-05-24T10:27:14.907Z,99205.86
2023-05-24T10:30:28.912Z,99202.85
2023-05-24T10:33:30.945Z,99208.11
2023-05-24T10:36:35.901Z,99206.57
2023-05-24T10:39:38.916Z,99203.63
2023-05-24T10:42:39.946Z,99200.58
2023-05-24T10:45:44.987Z,99206.24
2023-05-24T10:48:45.929Z,99208.48
2023-05-24T10:51:52.932Z,99208.30
2023-05-24T10:57:56.961Z,99209.80
2023-05-24T11:00:58.953Z,99211.42
2023-05-24T11:03:59.962Z,99215.36
2023-05-24T11:07:16.979Z,99218.13
2023-05-24T11:10:23.987Z,99219.58
2023-05-24T11:13:25.014Z,99218.06
2023-05-24T11:16:50.016Z,99217.03
2023-05-24T11:19:53.317Z,99219.08
2023-05-24T11:22:56.000Z,99217.73
2023-05-24T11:25:57.018Z,99216.64
2023-05-24T11:29:04.043Z,99209.42
2023-05-24T11:32:14.186Z,99205.14
2023-05-24T11:35:18.045Z,99204.45
2023-05-24T11:38:25.138Z,99207.61
2023-05-24T11:41:19.101Z,99204.23
2023-05-24T11:44:06.990Z,99203.21
2023-05-24T11:47:20.050Z,99199.98
2023-05-24T11:50:21.061Z,99197.50
2023-05-24T11:53:29.065Z,99191.07
2023-05-24T11:56:31.676Z,99186.54
2023-05-24T11:59:44.154Z,99180.39
2023-05-24T12:02:47.234Z,99178.68
2023-05-24T12:05:48.116Z,99178.01
2023-05-24T12:08:49.071Z,99179.09
2023-05-24T12:12:00.181Z,99176.91
2023-05-24T12:15:01.149Z,99174.64
2023-05-24T12:18:02.245Z,99171.70
2023-05-24T12:21:04.120Z,99168.84
2023-05-24T12:24:05.109Z,99169.91
2023-05-24T12:27:06.142Z,99168.85
2023-05-24T12:30:07.132Z,99160.68
2023-05-24T12:33:08.165Z,99159.97
2023-05-24T12:36:09.128Z,99158.38
2023-05-24T12:39:13.153Z,99159.58
2023-05-24T12:42:15.137Z,99154.27
2023-05-24T12:45:16.165Z,99152.13
2023-05-24T12:48:17.183Z,99151.85
2023-05-24T12:51:18.191Z,99153.77
2023-05-24T12:54:19.183Z,99150.98
2023-05-24T12:57:20.222Z,99155.46
2023-05-24T13:00:15.419Z,99156.05
2023-05-24T13:03:16.257Z,99153.93
2023-05-24T13:06:17.213Z,99150.22
2023-05-24T13:09:18.192Z,99153.07
2023-05-24T13:12:19.222Z,99151.08
2023-05-24T13:15:21.234Z,99151.91
2023-05-24T13:18:22.224Z,99148.05
2023-05-24T13:21:23.331Z,99154.05
2023-05-24T13:24:24.278Z,99149.26
2023-05-24T13:27:25.257Z,99149.55
2023-05-24T13:30:34.275Z,99144.60
2023-05-24T13:33:35.254Z,99142.18
2023-05-24T13:36:36.277Z,99142.61
2023-05-24T13:39:39.425Z,99140.85
2023-05-24T13:42:40.343Z,99142.58
2023-05-24T13:45:41.328Z,99140.11
2023-05-24T13:48:42.329Z,99140.20
2023-05-24T13:51:43.322Z,99142.00
2023-05-24T13:54:45.286Z,99147.02
2023-05-24T13:57:51.216Z,99149.83
2023-05-24T14:00:53.302Z,99146.27
2023-05-24T14:03:54.348Z,99145.11
2023-05-24T14:06:55.344Z,99143.88
2023-05-24T14:09:56.360Z,99146.20
2023-05-24T14:13:15.046Z,99145.81
2023-05-24T14:16:19.431Z,99145.48
2023-05-24T14:19:20.388Z,99145.04
2023-05-24T14:22:21.366Z,99140.81
2023-05-24T14:25:23.372Z,99135.61
2023-05-24T14:28:25.377Z,99134.23
2023-05-24T14:31:26.398Z,99139.95
2023-05-24T14:34:27.389Z,99143.34
2023-05-24T14:37:28.370Z,99142.39
2023-05-24T14:40:29.384Z,99140.14
2023-05-24T14:43:30.414Z,99137.67
2023-05-24T14:46:31.418Z,99135.87
2023-05-24T14:49:32.415Z,99137.91
2023-05-24T14:52:33.400Z,99132.97
2023-05-24T14:55:34.457Z,99128.14
2023-05-24T14:58:35.434Z,99123.61
2023-05-24T15:01:36.527Z,99121.90
2023-05-24T15:04:37.458Z,99124.11
2023-05-24T15:07:38.462Z,99125.44
2023-05-24T15:10:39.474Z,99128.10
2023-05-24T15:13:40.469Z,99124.89
2023-05-24T15:16:41.482Z,99126.47
2023-05-24T15:19:42.541Z,99124.99
2023-05-24T15:22:43.633Z,99122.92
2023-05-24T15:25:44.484Z,99122.96
2023-05-24T15:28:45.486Z,99118.30
2023-05-24T15:35:40.572Z,99115.45
2023-05-24T15:38:41.537Z,99111.41
2023-05-24T15:41:44.573Z,99112.39
2023-05-24T15:44:45.599Z,99117.05
2023-05-24T15:47:46.650Z,99121.34
2023-05-24T15:51:31.994Z,99131.42
2023-05-24T15:54:08.576Z,99140.10
2023-05-24T15:57:09.561Z,99141.00
2023-05-24T16:00:10.776Z,99139.48
2023-05-24T16:03:11.667Z,99143.49
2023-05-24T16:06:12.627Z,99146.56
2023-05-24T16:09:15.595Z,99154.27
2023-05-24T16:12:16.587Z,99157.99
2023-05-24T16:15:17.609Z,99157.44
2023-05-24T16:18:18.586Z,99155.16
2023-05-24T16:21:19.606Z,99157.19
2023-05-24T16:24:24.645Z,99164.60
2023-05-24T16:27:28.614Z,99168.92
2023-05-24T16:30:29.656Z,99170.39
2023-05-24T16:33:23.870Z,99167.06
2023-05-24T16:36:25.640Z,99167.44
2023-05-24T16:39:26.658Z,99167.18
2023-05-24T16:42:20.671Z,99169.72
2023-05-24T16:45:07.712Z,99175.43
2023-05-24T16:48:08.743Z,99180.54
2023-05-24T16:51:09.659Z,99178.64
2023-05-24T16:54:10.685Z,99177.55
2023-05-24T16:57:11.709Z,99172.97
2023-05-24T17:00:12.701Z,99179.89
2023-05-24T17:03:13.752Z,99184.08
2023-05-24T17:06:14.686Z,99191.39
2023-05-24T17:09:15.710Z,99205.72
2023-05-24T17:12:16.764Z,99207.23
2023-05-24T17:15:19.217Z,99205.08
2023-05-24T17:18:19.771Z,99210.29
2023-05-24T17:21:20.741Z,99210.98
2023-05-24T17:24:21.730Z,99214.61
2023-05-24T17:27:22.827Z,99211.48
2023-05-24T17:30:23.738Z,99211.63
2023-05-24T17:33:25.769Z,99217.06
2023-05-24T17:36:26.769Z,99220.86
2023-05-24T17:39:28.776Z,99222.50
2023-05-24T17:42:29.766Z,99223.99
2023-05-24T17:45:30.802Z,99225.39
2023-05-24T17:48:31.810Z,99226.58
2023-05-24T17:51:32.780Z,99232.48
2023-05-24T17:54:33.786Z,99233.40
2023-05-24T17:57:34.789Z,99240.36
2023-05-24T18:00:35.791Z,99247.98
2023-05-24T18:03:36.866Z,99248.95
2023-05-24T18:06:30.823Z,99249.63
2023-05-24T18:09:31.802Z,99252.92
2023-05-24T18:12:32.831Z,99258.52
2023-05-24T18:15:33.806Z,99261.15
2023-05-24T18:18:34.832Z,99259.42
2023-05-24T18:21:35.872Z,99266.15
2023-05-24T18:24:36.884Z,99269.86
2023-05-24T18:27:37.859Z,99273.65
2023-05-24T18:30:38.860Z,99277.63
2023-05-24T18:33:39.964Z,99281.17
2023-05-24T18:36:40.964Z,99287.14
2023-05-24T18:39:41.924Z,99285.34
2023-05-24T18:42:42.849Z,99286.95
2023-05-24T18:45:45.167Z,99290.02
2023-05-24T18:48:45.901Z,99294.79
2023-05-24T18:51:46.904Z,99300.80
2023-05-24T18:54:47.980Z,99296.05
2023-05-24T18:57:48.925Z,99301.39
2023-05-24T19:01:22.934Z,99296.85
2023-05-24T19:04:23.931Z,99294.27
2023-05-24T19:07:24.994Z,99295.69
2023-05-24T19:10:25.964Z,99298.09
2023-05-24T19:13:26.933Z,99295.89
2023-05-24T19:16:27.977Z,99298.82
2023-05-24T19:19:28.912Z,99296.73
2023-05-24T19:22:29.979Z,99304.98
2023-05-24T19:25:30.998Z,99296.77
2023-05-24T19:28:32.018Z,99298.39
2023-05-24T19:31:33.026Z,99295.77
2023-05-24T19:34:35.009Z,99301.37
2023-05-24T19:37:37.002Z,99302.75
2023-05-24T19:40:38.028Z,99296.82
2023-05-24T19:43:39.025Z,99296.77
2023-05-24T19:46:42.082Z,99289.85
2023-05-24T19:49:43.024Z,99291.02
2023-05-24T19:52:44.032Z,99290.69
2023-05-24T19:55:45.304Z,99294.40
2023-05-24T19:58:46.024Z,99296.27
2023-05-24T20:01:47.090Z,99295.39
2023-05-24T20:04:49.043Z,99297.23
2023-05-24T20:07:50.064Z,99295.27
2023-05-24T20:10:51.257Z,99298.17
2023-05-24T20:13:52.070Z,99294.63
2023-05-24T20:16:54.079Z,99297.88
2023-05-24T20:19:55.090Z,99296.44
2023-05-24T20:22:56.121Z,99295.84
2023-05-24T20:25:57.151Z,99298.71
2023-05-24T20:28:59.099Z,99300.38
2023-05-24T20:32:00.206Z,99305.33
2023-05-24T20:35:01.176Z,99303.35
2023-05-24T20:38:02.136Z,99307.55
2023-05-24T20:41:03.143Z,99301.57
2023-05-24T20:44:04.130Z,99300.37
2023-05-24T20:47:05.339Z,99298.95
2023-05-24T20:50:06.136Z,99299.31
2023-05-24T20:53:07.146Z,99299.45
2023-05-24T20:56:09.180Z,99296.77
2023-05-24T20:59:10.135Z,99295.17
2023-05-24T21:02:11.193Z,99289.70
2023-05-24T21:05:13.171Z,99287.20
2023-05-24T21:08:14.173Z,99282.73
2023-05-24T21:11:15.164Z,99286.69
2023-05-24T21:14:16.169Z,99292.61
2023-05-24T21:17:17.220Z,99288.31
2023-05-24T21:20:18.247Z,99285.98
2023-05-24T21:23:19.219Z,99286.30
2023-05-24T21:26:20.211Z,99287.86
2023-05-24T21:29:21.220Z,99289.91
2023-05-24T21:32:24.279Z,99289.39
2023-05-24T21:35:25.221Z,99286.86
2023-05-24T21:38:28.189Z,99286.36
2023-05-24T21:41:29.260Z,99284.48
2023-05-24T21:44:30.205Z,99283.16
2023-05-24T21:47:31.316Z,99286.34
2023-05-24T21:50:32.249Z,99280.65
2023-05-24T21:53:33.246Z,99282.98
2023-05-24T21:56:35.276Z,99281.20
2023-05-24T21:59:36.267Z,99287.80
2023-05-24T22:02:38.400Z,99288.05
2023-05-24T22:05:39.252Z,99285.14
2023-05-24T22:08:41.313Z,99281.32
2023-05-24T22:11:42.295Z,99282.90
2023-05-24T22:14:43.312Z,99287.11
2023-05-24T22:17:47.331Z,99289.60
2023-05-24T22:20:48.312Z,99292.23
2023-05-24T22:23:50.316Z,99291.41
2023-05-24T22:26:53.370Z,99286.02
2023-05-24T22:29:54.339Z,99288.99
2023-05-24T22:32:56.357Z,99293.87
2023-05-24T22:35:58.378Z,99291.59
2023-05-24T22:38:59.355Z,99292.79
2023-05-24T22:42:00.336Z,99291.77
2023-05-24T22:45:01.387Z,99293.41
2023-05-24T22:48:05.554Z,99287.64
2023-05-24T22:53:45.072Z,99276.93
2023-05-24T22:56:44.982Z,99280.77
2023-05-24T22:59:45.017Z,99285.63
2023-05-24T23:02:45.048Z,99292.55
2023-05-24T23:05:48.031Z,99295.60
2023-05-24T23:08:48.011Z,99291.55
2023-05-24T23:11:49.034Z,99293.54
2023-05-24T23:14:52.023Z,99293.17
2023-05-24T23:17:53.059Z,99294.01
2023-05-24T23:20:53.050Z,99290.83
2023-05-24T23:23:53.090Z,99292.68
2023-05-24T23:26:57.112Z,99295.66
2023-05-24T23:29:57.061Z,99296.32
2023-05-24T23:32:58.084Z,99298.86
2023-05-24T23:35:58.060Z,99303.46
2023-05-24T23:38:58.085Z,99304.70
2023-05-24T23:41:58.076Z,99306.26
2023-05-24T23:44:58.101Z,99304.48
2023-05-24T23:47:59.249Z,99303.84
2023-05-24T23:50:59.126Z,99306.55
2023-05-24T23:53:59.105Z,99306.41
2023-05-24T23:57:00.152Z,99309.20
